Terminal Aerodrome Forecast
Issued by NWS Wilmington, OH

Current Version | Previous Version | Graphics & Text | Print | Product List | Glossary On
Versions: 1 2 3 4 5 6 7 8 9 10 11 12 13 14 15 16 17 18
338
FTUS41 KILN 062325
TAFDAY
TAF
KDAY 062325Z 0700/0724 21007KT P6SM FEW050 SCT250
     FM071500 21014G22KT P6SM FEW035 BKN150=

USA.gov is the U.S. government's official web portal to all federal, state and local government web resources and services.